In Rescue
 
Open Full Screen Window  High Contrast Mode
Wind Gusting 16 knots
09
April 19, 2021 7:15 PM CDT
Weather Information
Wind Direction
  300 °
Wind Speed
  09 kt (10 mph)
Wind Gust
  16 kt (18 mph)
Altimeter
30.02 in
Visibility
10 SM
Temperature
02° C
36° F
Dewpoint
-09° C
16° F
Humidity
44%
1hr Rain Fall
00.00 in.
24hr Rain Fall
00.17 in.
Sky Condition
Overcast @ 5,000 ft
VFR

METAR KTOB 200015Z AUTO 30009G16KT 10SM OVC050 02/M09 A3002 RMK AO2

FAA Disclaimer: The data displayed is for advisory purposes only and is not to be used for flight planning or operations.